Amunt
Inicio > meteoXarxa
Fes-te'n soci

METEOXARXA

Benicàssim
Ubicació CEIP Palmerar
Comarca la Plana Alta
Altitud (msnm) 9
Posició geogràfica 40° 3' 22.68" N, 00° 3' 56.52" E
Model Davis Vantage Pro2 Plus (aspirada)
Presa de dades
Font de les dades MeteoBenicassim
Estadístiques. Resum
Data Temperatura (ºC) Humitat (%) Pressió (hPa) Vent (km/h) Precipit. (mm)
Mínima Mitjana Màxima Mínima Mitjana Màxima Mínima Mitjana Màxima Predom. Mitjana Ràfega màxima Total Dies de pluja
Mínima Mitjana Màxima Mínima Mitjana Màxima
Últimes dades diàries
24-02-2017 10,4     12,8     14,9 SSE 1,6 16,1 7,4  
23-02-2017 9,8     13,3     17,1 ESE 1,2 17,7 0,0  
22-02-2017 4,7     11,0     17,0 SSE 0,3 9,7 0,0  
21-02-2017 3,6     9,8     16,1 SSE 0,9 12,9 0,0  
20-02-2017 5,3     10,9     17,5 S 1,0 17,7 0,0  
19-02-2017 8,3     12,5     15,9 ENE 4,8 27,4 0,0  
18-02-2017 5,1     10,2     15,1 SSE 1,0 17,7 0,2  
17-02-2017 7,1     11,3     15,4 SSE 1,6 14,5 0,2  
14-02-2017 7,1     10,6     16,2 ESE 0,8 14,5 0,2  
13-02-2017 10,1     14,0     16,4 NE 10,2 48,3 5,8  
12-02-2017 13,3     14,5     16,3 NE 13,5 32,2 0,0  
11-02-2017 10,3     12,3     14,3 NE 10,3 38,6 0,0  
10-02-2017 5,8     10,3     14,6 ESE 0,4 12,9 0,0  
09-02-2017 7,7     11,4     14,9 NNW 15,8 70,8 0,0  
08-02-2017 11,0     12,7     14,9 NNW 36,9 98,2 0,0  
07-02-2017 10,6     16,3     22,3 WNW 3,5 51,5 0,0  
06-02-2017 9,4     14,7     19,3 WNW 9,7 61,2 0,0  
05-02-2017 10,9     14,9     18,1 WNW 20,3 78,9 5,2  
04-02-2017 12,9     16,5     20,7 SW 6,4 38,6 0,0  
02-02-2017 5,5     10,0     14,1 W 1,9 22,5 1,6  
01-02-2017 7,5     10,4     13,9 S 0,9 16,1 0,2  
31-01-2017 6,1     10,3     14,2 E 1,0 14,5 0,2  
30-01-2017 6,3     11,0     15,1 E 0,2 14,5 0,0  
29-01-2017 3,9     9,5     14,7 S 0,4 12,9 0,0  
28-01-2017 9,8     11,2     12,8 NNW 11,2 48,3 3,6  
27-01-2017 9,4     11,6     14,8 W 4,0 35,4 8,8  
26-01-2017 3,3     8,6     11,4 ENE 0,6 14,5 0,0  
25-01-2017 2,3     8,1     13,6 ENE 2,4 25,7 0,0  
24-01-2017 4,6     10,9     14,4 NW 1,3 22,5 0,0  
23-01-2017 10,4     12,1     14,2 N 11,1 40,2 0,0  
22-01-2017 11,2     11,9     12,7 NNE 18,5 54,7 0,2  
21-01-2017 9,1     11,3     13,1 NE 26,2 75,6 5,0  
Dades del mes en curs (actualitzades fins l'últim dia disponible)
02/2017 3,6 8,4 13,3 12,4 13,9 16,4 22,3   6,8 98,2 20,8  
Últimes dades mensuals
01/2017 2,2 6,1 12,9 10,5 9,8 14,3 18,6 7,6 93,3 134,8 8
12/2016 1,8 8,1 15,7 12,1 12,4 16,4 18,8 4,6 61,2 97,6 15
11/2016 4,6 10,2 16,3 14,8 14,2 19,0 26,2 4,1 66,0 104,0 14
10/2016 10,6 16,6 20,2 20,2 19,4 23,6 26,2 1,8 40,2 15,6 10
09/2016 14,0 19,3 23,7 23,4 18,6 27,1 31,3 2,7 61,2 30,2 5
08/2016 18,2 21,6 24,9 25,5 26,8 28,6 31,5 2,8 48,3 11,8 5
07/2016 17,7 21,6 23,7 25,5 25,4 28,3 30,4 3,3 38,6 0,0 0
06/2016 13,2 18,5 23,4 22,5 22,4 25,7 32,9 3,8 59,5 2,4 1
05/2016 8,6 14,2 18,1 18,1 17,5 21,3 29,8 5,0 62,8 24,4 10
04/2016 5,9 11,6 14,2 15,6 15,4 19,5 27,9 6,1 83,7 30,2 9
03/2016 3,4 8,6 12,1 13,0 12,6 16,9 23,4 7,2 83,7 29,8 7
02/2016 0,1 7,5 15,5 12,7 11,7 17,5 26,1 8,1 88,5 4,2 4
01/2016 2,7 7,8 13,4 12,5 13,1 17,3 23,2 5,0 80,5 1,2 6
Dades de l'any en curs (actualitzades fins l'últim dia disponible)
2017 2,2 7,0 13,3 11,3 9,8 15,2 22,3   7,3 98,2 155,6  
Últimes dades anuals
2011 -2,8 13,3 24,7 17,5 9,1 21,3 37,1 5,8 90,1 481,0 87
2012 324,8
2013 0,9 12,9 17,3 17,4 20,3 21,4 31,6 6,9 111,0 295,8 69
2014 -0,3 14,0 25,7 18,1 12,3 21,9 33,7 6,3 88,5 279,6 67
2015 -0,4 13,4 20,9 17,8 20,5 21,9 35,7 6,2 123,9 387,8 98
2016 0,1 13,8 24,9 18,0 11,7 21,8 32,9 4,5 88,5 351,4 86